Time;durP1;ratioP1;P1;durP2;ratioP2;P2;SDS_P1;SDS_P2;PMS_P1;PMS_P2;Temp;Humidity;BMP_temperature;BMP_pressure;BME280_temperature;BME280_humidity;BME280_pressure;Samples;Min_cycle;Max_cycle;Signal;HPM_P1;HPM_P2
2022/11/24 00:02:01;;;;;;;5.78;1.00;;;11.70;99.90;;;;;;6296248;28;20052;-86
2022/11/24 00:05:20;;;;;;;7.22;1.08;;;11.70;99.90;;;;;;6297574;28;20572;-86
2022/11/24 00:08:22;;;;;;;4.75;0.95;;;11.70;99.90;;;;;;6297833;28;20067;-86
2022/11/24 00:11:26;;;;;;;4.00;1.20;;;11.70;99.90;;;;;;6300848;28;20044;-86
2022/11/24 00:14:28;;;;;;;10.05;1.48;;;11.80;99.90;;;;;;6299041;28;20119;-86
2022/11/24 00:17:32;;;;;;;12.57;2.30;;;11.80;99.90;;;;;;6298366;28;20048;-86
2022/11/24 00:20:34;;;;;;;11.45;0.80;;;11.80;99.90;;;;;;6298225;28;20530;-86
2022/11/24 00:23:36;;;;;;;10.50;1.27;;;11.90;99.90;;;;;;6290661;28;20055;-86
2022/11/24 00:26:38;;;;;;;5.78;0.93;;;11.90;99.90;;;;;;6320552;28;20044;-86
2022/11/24 00:29:40;;;;;;;5.93;0.90;;;11.90;99.90;;;;;;6322308;28;20507;-85
2022/11/24 00:32:43;;;;;;;13.02;1.88;;;11.90;99.90;;;;;;6322493;28;20055;-86
2022/11/24 00:35:45;;;;;;;4.80;0.90;;;12.00;99.90;;;;;;6322672;28;20040;-86
2022/11/24 00:38:47;;;;;;;12.05;1.55;;;12.00;99.90;;;;;;6322979;28;20090;-86
2022/11/24 00:41:49;;;;;;;4.20;1.10;;;12.00;99.90;;;;;;6323000;28;20105;-86
2022/11/24 00:44:51;;;;;;;38.85;2.70;;;12.00;99.90;;;;;;6322839;28;20517;-86
2022/11/24 00:47:54;;;;;;;8.32;0.90;;;12.00;99.90;;;;;;6321827;28;20048;-86
2022/11/24 00:50:58;;;;;;;8.57;0.80;;;11.90;99.90;;;;;;6322658;28;20048;-86
2022/11/24 00:54:01;;;;;;;8.75;1.52;;;11.90;99.90;;;;;;6322268;28;20044;-86
2022/11/24 00:57:03;;;;;;;3.30;0.63;;;12.00;99.90;;;;;;6322064;28;20044;-86
2022/11/24 01:00:06;;;;;;;2.92;1.05;;;11.90;99.90;;;;;;6321876;28;20052;-86
2022/11/24 01:03:09;;;;;;;1.55;0.43;;;11.90;99.90;;;;;;6322580;28;20415;-87
2022/11/24 01:06:14;;;;;;;4.70;0.73;;;11.90;99.90;;;;;;6322988;28;20052;-86
2022/11/24 01:09:18;;;;;;;6.90;0.90;;;12.00;99.90;;;;;;6321502;28;20047;-87
2022/11/24 01:12:20;;;;;;;4.45;1.30;;;12.00;99.90;;;;;;6322594;28;20050;-86
2022/11/24 01:15:32;;;;;;;3.95;0.60;;;11.90;99.90;;;;;;6323298;28;20040;-87
2022/11/24 01:18:38;;;;;;;5.20;0.50;;;11.90;99.90;;;;;;6311690;28;20504;-86
2022/11/24 01:21:40;;;;;;;5.07;0.68;;;11.90;99.90;;;;;;6320505;28;20048;-86
2022/11/24 01:24:42;;;;;;;3.05;0.73;;;11.90;99.90;;;;;;6316459;28;20415;-86
2022/11/24 01:27:44;;;;;;;6.13;0.88;;;11.90;99.90;;;;;;6320146;28;20098;-86
2022/11/24 01:30:46;;;;;;;1.52;0.50;;;11.90;99.90;;;;;;6322318;28;20557;-86
2022/11/24 01:33:50;;;;;;;3.00;0.82;;;11.90;99.90;;;;;;6321378;28;20052;-87
2022/11/24 01:36:52;;;;;;;5.20;0.95;;;12.00;99.90;;;;;;6325527;28;20056;-85
2022/11/24 01:39:54;;;;;;;8.50;1.45;;;12.10;99.90;;;;;;6328314;28;20044;-85
2022/11/24 01:42:56;;;;;;;2.03;0.63;;;12.10;99.90;;;;;;6331327;28;20059;-85
2022/11/24 01:46:02;;;;;;;8.07;1.45;;;12.20;99.90;;;;;;6329277;28;20423;-85
2022/11/24 01:49:13;;;;;;;3.92;1.38;;;12.20;99.90;;;;;;6328088;28;20044;-85
2022/11/24 01:52:19;;;;;;;6.57;1.33;;;12.10;99.90;;;;;;6328011;28;20047;-85
2022/11/24 01:55:25;;;;;;;3.25;0.63;;;12.20;99.80;;;;;;6328990;28;20044;-86
2022/11/24 01:58:32;;;;;;;5.35;0.82;;;12.20;99.80;;;;;;6327957;28;20048;-85
2022/11/24 02:01:34;;;;;;;7.75;2.67;;;12.20;99.70;;;;;;6331781;28;20067;-85
2022/11/24 02:04:38;;;;;;;3.47;0.70;;;12.30;99.60;;;;;;6333980;28;20044;-85
2022/11/24 02:07:40;;;;;;;5.88;2.50;;;12.30;99.60;;;;;;6333590;28;20102;-86
2022/11/24 02:10:44;;;;;;;8.65;1.05;;;12.30;99.60;;;;;;6333869;28;20048;-85
2022/11/24 02:13:47;;;;;;;6.68;0.60;;;12.30;99.80;;;;;;6334475;28;20040;-85
2022/11/24 02:16:51;;;;;;;3.42;0.77;;;12.30;99.50;;;;;;6332201;28;20056;-85
2022/11/24 02:20:03;;;;;;;3.88;0.73;;;12.30;99.50;;;;;;6331484;28;20148;-85
2022/11/24 02:23:19;;;;;;;6.57;0.73;;;12.30;99.40;;;;;;6331032;28;20048;-85
2022/11/24 02:26:31;;;;;;;5.60;0.80;;;12.10;99.40;;;;;;6317035;28;20044;-85
2022/11/24 02:29:33;;;;;;;4.00;0.63;;;12.10;99.40;;;;;;6305190;28;20075;-85
2022/11/24 02:32:40;;;;;;;4.47;0.82;;;12.00;99.40;;;;;;6306854;28;20533;-86
2022/11/24 02:35:44;;;;;;;6.07;0.63;;;11.80;99.50;;;;;;6302155;28;20080;-86
2022/11/24 02:38:48;;;;;;;4.28;0.40;;;11.60;99.70;;;;;;6300474;28;20052;-86
2022/11/24 02:41:55;;;;;;;5.38;1.10;;;11.40;99.80;;;;;;6299362;28;20056;-86
2022/11/24 02:45:00;;;;;;;0.83;0.40;;;11.30;99.90;;;;;;6302026;28;20049;-86
2022/11/24 02:48:06;;;;;;;8.13;1.73;;;11.20;99.90;;;;;;6321230;28;21535;-86
2022/11/24 02:51:20;;;;;;;9.05;0.73;;;11.10;99.90;;;;;;6325471;28;20503;-86
2022/11/24 02:57:41;;;;;;;8.45;1.75;;;11.20;99.90;;;;;;6324386;28;20048;-86
2022/11/24 03:00:42;;;;;;;7.20;0.43;;;11.20;99.90;;;;;;6325198;28;20040;-86
2022/11/24 03:03:45;;;;;;;6.68;0.88;;;11.20;99.90;;;;;;6327119;28;20048;-86
2022/11/24 03:06:47;;;;;;;4.60;0.55;;;11.20;99.90;;;;;;6326188;28;20044;-86
2022/11/24 03:09:51;;;;;;;4.15;1.15;;;11.20;99.90;;;;;;6325098;28;20052;-86
2022/11/24 03:12:55;;;;;;;5.75;0.70;;;11.30;99.90;;;;;;6324793;28;20048;-86
2022/11/24 03:15:57;;;;;;;3.90;0.60;;;11.50;99.90;;;;;;6324148;28;20481;-86
2022/11/24 03:18:59;;;;;;;5.78;1.27;;;11.50;99.70;;;;;;6325262;28;20059;-86
2022/11/24 03:22:01;;;;;;;6.18;1.27;;;11.50;99.60;;;;;;6324159;28;20165;-87
2022/11/24 03:25:04;;;;;;;4.00;1.65;;;11.50;99.70;;;;;;6324763;28;20047;-87
2022/11/24 03:28:07;;;;;;;5.50;1.00;;;11.30;99.60;;;;;;6322277;28;20040;-86
2022/11/24 03:31:13;;;;;;;4.38;1.10;;;11.20;99.80;;;;;;6326303;28;20488;-86
2022/11/24 03:34:21;;;;;;;8.35;1.00;;;11.10;99.90;;;;;;6323758;28;20052;-86
2022/11/24 03:37:23;;;;;;;6.28;2.25;;;11.00;99.90;;;;;;6325824;28;20044;-86
2022/11/24 03:40:25;;;;;;;16.05;1.55;;;11.10;99.90;;;;;;6328279;28;20180;-85
2022/11/24 03:43:29;;;;;;;2.58;0.85;;;11.10;99.90;;;;;;6323976;28;20411;-85
2022/11/24 03:46:30;;;;;;;7.85;1.42;;;11.10;99.90;;;;;;6322066;28;20078;-85
2022/11/24 03:49:32;;;;;;;13.77;0.77;;;11.10;99.90;;;;;;6322982;28;20136;-85
2022/11/24 03:52:34;;;;;;;6.20;1.50;;;11.10;99.90;;;;;;6323954;28;20044;-85
2022/11/24 03:55:36;;;;;;;8.55;1.73;;;11.20;99.90;;;;;;6323927;28;20079;-85
2022/11/24 03:58:39;;;;;;;7.32;1.08;;;11.30;99.90;;;;;;6322578;28;20133;-85
2022/11/24 04:01:41;;;;;;;4.65;1.23;;;11.30;99.90;;;;;;6322578;28;20098;-86
2022/11/24 04:04:49;;;;;;;9.77;1.40;;;11.40;99.90;;;;;;6323392;28;20067;-85
2022/11/24 04:07:51;;;;;;;5.70;0.98;;;11.50;99.90;;;;;;6322323;28;20047;-85
2022/11/24 04:10:59;;;;;;;6.95;1.17;;;11.50;99.90;;;;;;6324327;28;20051;-86
2022/11/24 04:14:02;;;;;;;8.50;1.30;;;11.60;99.90;;;;;;6323064;28;20051;-85
2022/11/24 04:17:03;;;;;;;7.72;0.80;;;11.60;99.90;;;;;;6322835;28;20191;-85
2022/11/24 04:20:06;;;;;;;7.78;1.17;;;11.70;99.90;;;;;;6321926;28;20414;-85
2022/11/24 04:23:09;;;;;;;7.40;1.00;;;11.70;99.90;;;;;;6322738;28;20052;-84
2022/11/24 04:26:11;;;;;;;7.88;1.55;;;11.70;99.90;;;;;;6323295;28;20069;-84
2022/11/24 04:29:14;;;;;;;10.30;2.55;;;11.80;99.90;;;;;;6318565;28;20101;-84
2022/11/24 04:32:15;;;;;;;2.58;1.27;;;11.80;99.90;;;;;;6322298;28;20051;-84
2022/11/24 04:35:18;;;;;;;10.65;1.63;;;11.80;99.90;;;;;;6323275;28;20050;-85
2022/11/24 04:38:20;;;;;;;10.32;2.05;;;11.80;99.90;;;;;;6320888;28;20511;-86
2022/11/24 04:41:21;;;;;;;11.52;4.72;;;11.70;99.90;;;;;;6322479;28;20048;-85
2022/11/24 04:44:24;;;;;;;5.05;0.75;;;11.80;99.90;;;;;;6322498;28;20048;-85
2022/11/24 04:47:27;;;;;;;7.57;1.35;;;11.80;99.90;;;;;;6323753;28;20048;-85
2022/11/24 04:50:28;;;;;;;2.13;0.80;;;11.80;99.90;;;;;;6305707;28;20415;-85
2022/11/24 04:53:30;;;;;;;13.30;1.38;;;11.80;99.90;;;;;;6297685;28;20044;-86
2022/11/24 04:56:32;;;;;;;15.45;2.97;;;11.90;99.90;;;;;;6298286;28;20572;-85
2022/11/24 04:59:35;;;;;;;7.63;0.95;;;11.90;99.90;;;;;;6298280;28;20052;-86
2022/11/24 05:02:37;;;;;;;5.07;1.13;;;12.00;99.90;;;;;;6299589;28;20093;-85
2022/11/24 05:05:39;;;;;;;5.53;1.50;;;12.00;99.80;;;;;;6298927;28;20040;-86
2022/11/24 05:08:40;;;;;;;5.57;0.80;;;12.00;99.80;;;;;;6296792;28;20053;-85
2022/11/24 05:11:43;;;;;;;12.05;2.30;;;12.10;99.70;;;;;;6296658;28;20077;-86
2022/11/24 05:14:46;;;;;;;8.95;1.23;;;12.00;99.60;;;;;;6297089;28;20048;-85
2022/11/24 05:17:48;;;;;;;9.55;2.60;;;12.00;99.60;;;;;;6295801;28;20427;-85
2022/11/24 05:20:49;;;;;;;8.63;1.35;;;12.10;99.60;;;;;;6296501;28;20448;-84
2022/11/24 05:23:51;;;;;;;12.32;1.45;;;12.10;99.50;;;;;;6297202;28;20049;-85
2022/11/24 05:26:53;;;;;;;8.95;1.00;;;12.10;99.40;;;;;;6297161;28;20053;-85
2022/11/24 05:29:56;;;;;;;11.10;1.65;;;12.10;99.30;;;;;;6310848;28;20044;-85
2022/11/24 05:32:58;;;;;;;11.00;1.50;;;12.00;99.40;;;;;;6322152;28;20422;-84
2022/11/24 05:36:01;;;;;;;10.32;2.30;;;12.00;99.40;;;;;;6323600;28;20525;-85
2022/11/24 05:39:03;;;;;;;8.30;1.15;;;12.00;99.40;;;;;;6326421;28;20531;-85
2022/11/24 05:45:24;;;;;;;15.63;2.35;;;11.90;99.60;;;;;;6325348;28;20548;-85
2022/11/24 05:48:26;;;;;;;8.13;1.70;;;11.90;99.60;;;;;;6325177;28;20507;-85
2022/11/24 05:51:27;;;;;;;16.77;1.50;;;11.90;99.60;;;;;;6326930;28;20059;-85
2022/11/24 05:54:29;;;;;;;14.57;1.33;;;11.90;99.60;;;;;;6325792;28;20422;-84
2022/11/24 05:57:31;;;;;;;13.77;1.02;;;11.80;99.70;;;;;;6326057;28;20544;-83
2022/11/24 06:00:35;;;;;;;9.15;1.20;;;11.70;99.80;;;;;;6325891;28;20048;-83
2022/11/24 06:03:37;;;;;;;12.45;1.80;;;11.60;99.90;;;;;;6326268;28;20499;-84
2022/11/24 06:06:39;;;;;;;9.32;1.20;;;11.50;99.90;;;;;;6325679;28;20560;-85
2022/11/24 06:09:42;;;;;;;9.52;1.90;;;11.40;99.90;;;;;;6325469;28;20073;-84
2022/11/24 06:12:44;;;;;;;15.98;3.03;;;11.30;99.90;;;;;;6325847;28;20063;-84
2022/11/24 06:15:47;;;;;;;13.80;1.27;;;11.30;99.90;;;;;;6326258;28;20513;-85
2022/11/24 06:18:49;;;;;;;9.00;1.45;;;11.30;99.90;;;;;;6329325;28;20146;-85
2022/11/24 06:21:51;;;;;;;2.50;0.73;;;11.20;99.90;;;;;;6326170;28;20074;-85
2022/11/24 06:24:52;;;;;;;8.98;1.92;;;11.20;99.90;;;;;;6325654;28;20044;-85
2022/11/24 06:27:54;;;;;;;7.60;1.50;;;11.10;99.90;;;;;;6325276;28;20048;-85
2022/11/24 06:31:02;;;;;;;8.55;1.80;;;11.10;99.90;;;;;;6325238;28;20189;-85
2022/11/24 06:34:06;;;;;;;10.68;1.23;;;11.00;99.90;;;;;;6326685;28;20052;-85
2022/11/24 06:37:08;;;;;;;14.82;2.05;;;11.10;99.90;;;;;;6325111;28;20120;-85
2022/11/24 06:40:10;;;;;;;5.35;0.68;;;11.00;99.90;;;;;;6323968;28;20040;-85
2022/11/24 06:43:12;;;;;;;7.35;1.23;;;11.00;99.90;;;;;;6325075;28;20052;-86
2022/11/24 06:46:15;;;;;;;7.95;1.15;;;10.90;99.90;;;;;;6324138;28;20078;-85
2022/11/24 06:49:17;;;;;;;21.10;3.80;;;10.80;99.90;;;;;;6309538;28;20044;-86
2022/11/24 06:52:19;;;;;;;14.82;2.50;;;10.80;99.90;;;;;;6300100;28;20063;-85
2022/11/24 06:55:25;;;;;;;12.05;1.83;;;10.70;99.90;;;;;;6299989;28;20569;-86
2022/11/24 06:58:27;;;;;;;10.25;2.20;;;10.60;99.90;;;;;;6298621;28;20048;-85
2022/11/24 07:01:31;;;;;;;13.82;2.38;;;10.60;99.90;;;;;;6290292;28;20670;-86
2022/11/24 07:04:32;;;;;;;8.52;0.93;;;10.60;99.90;;;;;;6300185;28;20044;-86
2022/11/24 07:07:34;;;;;;;15.85;4.03;;;10.60;99.90;;;;;;6299731;28;20129;-85
2022/11/24 07:10:36;;;;;;;11.38;1.48;;;10.50;99.90;;;;;;6302292;28;20567;-85
2022/11/24 07:13:38;;;;;;;11.60;1.60;;;10.50;99.90;;;;;;6299545;28;20048;-86
2022/11/24 07:16:41;;;;;;;11.90;1.33;;;10.40;99.90;;;;;;6299445;28;20427;-86
2022/11/24 07:19:43;;;;;;;15.23;1.48;;;10.40;99.90;;;;;;6299399;28;20055;-86
2022/11/24 07:22:45;;;;;;;18.75;3.40;;;10.40;99.90;;;;;;6299849;28;20121;-86
2022/11/24 07:25:47;;;;;;;10.05;1.42;;;10.30;99.90;;;;;;6298867;28;20135;-85
2022/11/24 07:28:49;;;;;;;9.23;1.20;;;10.30;99.90;;;;;;6298559;28;20052;-85
2022/11/24 07:31:52;;;;;;;14.85;1.83;;;10.30;99.90;;;;;;6309501;28;20047;-85
2022/11/24 07:34:54;;;;;;;4.50;0.55;;;10.30;99.90;;;;;;6324566;28;20059;-85
2022/11/24 07:37:56;;;;;;;9.15;0.98;;;10.30;99.90;;;;;;6322642;28;20044;-85
2022/11/24 07:41:01;;;;;;;8.00;1.38;;;10.40;99.90;;;;;;6323698;28;20054;-85
2022/11/24 07:44:03;;;;;;;4.97;0.95;;;10.30;99.90;;;;;;6324952;28;20043;-86
2022/11/24 07:47:07;;;;;;;6.30;0.85;;;10.40;99.90;;;;;;6325299;28;20072;-85
2022/11/24 07:50:11;;;;;;;4.85;0.60;;;10.30;99.90;;;;;;6322283;28;20052;-86
2022/11/24 07:53:13;;;;;;;12.55;1.10;;;10.30;99.90;;;;;;6323057;28;20044;-86
2022/11/24 07:56:14;;;;;;;13.05;4.25;;;10.40;99.90;;;;;;6323164;28;20414;-86
2022/11/24 07:59:16;;;;;;;6.10;2.45;;;10.40;99.90;;;;;;6322576;28;20054;-85
2022/11/24 08:02:19;;;;;;;9.00;0.75;;;10.40;99.90;;;;;;6323149;28;20068;-86
2022/11/24 08:05:21;;;;;;;7.90;0.60;;;10.30;99.90;;;;;;6324962;28;20048;-86
2022/11/24 08:08:23;;;;;;;2.63;0.88;;;10.30;99.90;;;;;;6322682;28;20044;-87
2022/11/24 08:11:25;;;;;;;6.60;1.10;;;10.30;99.90;;;;;;6323894;28;20055;-87
2022/11/24 08:14:27;;;;;;;3.35;0.70;;;10.40;99.90;;;;;;6321705;28;20048;-87
2022/11/24 08:17:30;;;;;;;4.13;1.98;;;10.40;99.90;;;;;;6321896;28;20052;-85
2022/11/24 08:20:33;;;;;;;2.05;0.28;;;10.40;99.90;;;;;;6322388;28;20066;-86
2022/11/24 08:23:35;;;;;;;1.85;0.40;;;10.50;99.90;;;;;;6257656;28;20055;-85
2022/11/24 08:27:07;;;;;;;8.68;0.90;;;10.70;99.90;;;;;;6304580;28;20033;-86
2022/11/24 08:34:02;;;;;;;1.63;0.63;;;10.90;99.90;;;;;;6288386;28;20041;-85
2022/11/24 08:37:05;;;;;;;4.28;0.70;;;11.10;99.90;;;;;;6305121;28;20035;-86
2022/11/24 08:40:07;;;;;;;0.88;0.68;;;11.20;99.90;;;;;;6317980;28;20043;-85
2022/11/24 08:43:09;;;;;;;1.70;0.40;;;11.40;99.90;;;;;;6298087;28;20474;-85
2022/11/24 08:46:15;;;;;;;3.78;0.40;;;11.30;99.90;;;;;;6312948;28;20040;-86
2022/11/24 08:49:18;;;;;;;1.70;0.40;;;11.30;99.90;;;;;;6296951;28;20053;-83
2022/11/24 08:52:20;;;;;;;2.58;0.35;;;11.30;99.90;;;;;;6297998;28;20055;-86
2022/11/24 08:55:22;;;;;;;4.55;0.80;;;11.30;99.90;;;;;;6303681;28;20501;-85
2022/11/24 08:58:24;;;;;;;1.23;0.30;;;11.20;99.90;;;;;;6305842;28;20051;-85
2022/11/24 09:01:29;;;;;;;1.88;0.52;;;11.20;99.90;;;;;;6314469;28;20120;-85
2022/11/24 09:04:32;;;;;;;8.18;1.83;;;11.10;99.90;;;;;;6321767;28;20533;-85
2022/11/24 09:07:34;;;;;;;3.95;0.40;;;11.20;99.90;;;;;;6322664;28;20059;-85
2022/11/24 09:10:36;;;;;;;6.57;0.63;;;11.30;99.90;;;;;;6323014;28;20050;-86
2022/11/24 09:13:39;;;;;;;3.65;0.43;;;11.30;99.90;;;;;;6325090;28;20126;-85
2022/11/24 09:16:40;;;;;;;3.75;0.60;;;11.20;99.90;;;;;;6323739;28;20703;-87
2022/11/24 09:19:51;;;;;;;2.10;0.75;;;11.20;99.90;;;;;;6322156;28;20408;-86
2022/11/24 09:22:53;;;;;;;4.45;0.60;;;11.30;99.90;;;;;;6322511;28;20058;-85
2022/11/24 09:25:55;;;;;;;2.20;0.30;;;11.30;99.90;;;;;;6322774;28;20081;-86
2022/11/24 09:28:58;;;;;;;5.13;0.35;;;11.30;99.90;;;;;;6304357;28;20462;-86
2022/11/24 09:32:09;;;;;;;4.25;1.27;;;11.30;99.90;;;;;;6296416;28;20552;-86
2022/11/24 09:35:12;;;;;;;6.75;0.82;;;11.30;99.90;;;;;;6296397;28;20174;-86
2022/11/24 09:38:14;;;;;;;8.80;2.13;;;11.50;99.90;;;;;;6295892;28;20036;-85
2022/11/24 09:41:29;;;;;;;3.78;1.40;;;11.60;99.90;;;;;;6296259;28;20056;-85
2022/11/24 09:45:15;;;;;;;3.83;1.67;;;11.60;99.90;;;;;;6303340;28;20040;-86
2022/11/24 09:48:22;;;;;;;8.82;1.38;;;11.50;99.90;;;;;;6267653;28;20068;-86
2022/11/24 09:51:29;;;;;;;11.48;1.30;;;11.50;99.90;;;;;;6266174;28;20484;-85
2022/11/24 09:54:32;;;;;;;8.00;1.00;;;11.60;99.90;;;;;;6297567;28;20127;-86
2022/11/24 09:57:38;;;;;;;7.40;1.10;;;11.60;99.90;;;;;;6312876;28;20036;-85
2022/11/24 10:00:41;;;;;;;9.02;1.63;;;11.70;99.90;;;;;;6296501;28;20041;-87
2022/11/24 10:03:45;;;;;;;5.70;0.88;;;11.60;99.90;;;;;;6298032;28;20053;-86
2022/11/24 10:07:06;;;;;;;6.80;0.98;;;11.60;99.90;;;;;;6298471;28;20064;-87
2022/11/24 10:10:15;;;;;;;10.25;1.15;;;11.50;99.90;;;;;;6296535;28;20044;-85
2022/11/24 10:18:01;;;;;;;2.15;0.90;;;12.00;99.90;;;;;;6295686;28;20041;-87
2022/11/24 10:21:45;;;;;;;4.55;0.90;;;12.10;99.90;;;;;;6269708;28;20139;-86
2022/11/24 10:29:13;;;;;;;8.63;1.73;;;12.70;99.90;;;;;;6302352;28;20593;-87
2022/11/24 10:51:54;;;;;;;14.48;2.53;;;14.60;99.90;;;;;;6152675;28;20047;-87
2022/11/24 10:55:02;;;;;;;8.05;1.80;;;14.90;99.90;;;;;;6194437;28;20054;-86
2022/11/24 11:02:25;;;;;;;0.77;0.40;;;14.80;99.90;;;;;;6321625;28;20629;-86
2022/11/24 11:05:40;;;;;;;14.48;1.85;;;14.60;99.90;;;;;;6299253;28;20179;-86
2022/11/24 11:08:43;;;;;;;11.38;1.33;;;14.40;99.90;;;;;;6298287;28;20062;-86
2022/11/24 11:11:47;;;;;;;9.65;1.40;;;14.30;99.90;;;;;;6300180;28;20049;-86
2022/11/24 11:14:48;;;;;;;6.03;1.05;;;14.20;99.90;;;;;;6300177;28;20045;-86
2022/11/24 11:17:53;;;;;;;8.90;2.25;;;14.20;99.90;;;;;;6299937;28;20415;-86
2022/11/24 11:21:00;;;;;;;5.75;1.60;;;14.30;99.90;;;;;;6300767;28;20049;-86
2022/11/24 11:24:05;;;;;;;15.93;1.93;;;14.30;99.80;;;;;;6299187;28;20101;-86
2022/11/24 11:27:17;;;;;;;6.80;1.60;;;14.30;99.80;;;;;;6309071;28;20386;-86
2022/11/24 11:30:23;;;;;;;10.63;1.73;;;14.40;99.60;;;;;;6323813;28;20371;-87
2022/11/24 11:33:28;;;;;;;8.18;2.70;;;14.50;99.40;;;;;;6324633;28;20097;-86
2022/11/24 11:36:32;;;;;;;22.42;2.70;;;14.50;99.40;;;;;;6323945;28;20043;-87
2022/11/24 11:39:36;;;;;;;11.88;3.28;;;14.50;98.70;;;;;;6323808;28;20499;-86
2022/11/24 11:42:43;;;;;;;15.32;4.28;;;14.40;98.70;;;;;;6326907;28;20074;-86
2022/11/24 11:45:46;;;;;;;16.42;1.58;;;14.50;98.70;;;;;;6329453;28;20058;-86
2022/11/24 11:48:48;;;;;;;14.13;2.97;;;14.40;98.30;;;;;;6329475;28;20459;-87
2022/11/24 11:52:08;;;;;;;10.75;1.48;;;14.20;98.10;;;;;;6329480;28;20102;-87
2022/11/24 11:55:33;;;;;;;5.43;1.58;;;14.20;98.10;;;;;;6328218;28;20181;-86
2022/11/24 11:59:05;;;;;;;7.70;1.42;;;14.20;98.10;;;;;;6350240;28;20067;-87
2022/11/24 12:02:42;;;;;;;10.98;1.90;;;14.10;98.10;;;;;;6368808;28;20534;-87
2022/11/24 12:05:51;;;;;;;15.43;2.22;;;14.10;98.00;;;;;;6330014;28;20040;-87
2022/11/24 12:08:58;;;;;;;;;;;14.10;98.00;;;;;;6348820;28;20418;-86
2022/11/24 12:12:26;;;;;;;14.57;1.83;;;14.40;98.40;;;;;;6348882;28;19920;-87
2022/11/24 12:15:35;;;;;;;7.63;1.42;;;14.60;97.40;;;;;;6348749;28;20510;-87
2022/11/24 12:18:43;;;;;;;5.40;1.95;;;14.60;97.40;;;;;;6348153;28;20123;-87
2022/11/24 12:21:55;;;;;;;6.80;2.00;;;14.80;97.50;;;;;;6348943;28;20039;-86
2022/11/24 12:25:11;;;;;;;7.72;1.35;;;14.90;97.20;;;;;;6348293;28;20117;-88
2022/11/24 12:28:25;;;;;;;7.00;1.90;;;15.20;97.30;;;;;;6331783;28;20034;-88
2022/11/24 12:31:37;;;;;;;16.00;1.42;;;15.40;96.70;;;;;;6349255;28;20059;-87
2022/11/24 12:34:50;;;;;;;5.68;1.00;;;15.70;96.30;;;;;;6348156;28;20048;-85
2022/11/24 12:38:08;;;;;;;3.70;1.40;;;16.00;96.30;;;;;;6348336;28;20051;-87
2022/11/24 12:41:26;;;;;;;5.90;1.17;;;16.40;95.80;;;;;;6346581;28;20071;-87
2022/11/24 12:44:55;;;;;;;4.47;1.17;;;16.80;94.70;;;;;;6347664;28;20052;-86
2022/11/24 12:48:46;;;;;;;13.10;2.28;;;17.20;93.90;;;;;;6345541;28;20514;-87
2022/11/24 12:51:56;;;;;;;8.80;1.30;;;17.70;93.30;;;;;;6319083;28;20137;-88
2022/11/24 12:59:02;;;;;;;5.72;0.85;;;18.10;91.40;;;;;;6331814;28;20135;-85
2022/11/24 13:02:19;;;;;;;7.13;1.02;;;18.10;89.80;;;;;;6352608;28;20081;-88
2022/11/24 13:05:26;;;;;;;2.90;0.75;;;17.90;90.00;;;;;;6323879;28;20044;-87
2022/11/24 13:08:35;;;;;;;10.45;1.67;;;17.70;88.80;;;;;;6327947;28;20054;-88
2022/11/24 13:11:50;;;;;;;6.95;1.48;;;17.40;87.30;;;;;;6338029;28;20648;-87
2022/11/24 13:22:28;;;;;;;8.90;1.58;;;17.10;88.10;;;;;;6327961;28;20078;-87
2022/11/24 13:26:32;;;;;;;8.05;0.93;;;17.30;88.50;;;;;;6317808;28;20044;-87
2022/11/24 13:30:03;;;;;;;6.68;0.95;;;17.30;88.10;;;;;;6317821;28;20241;-86
2022/11/24 13:33:40;;;;;;;7.63;1.00;;;17.60;88.20;;;;;;6317599;28;20044;-87
2022/11/24 13:38:11;;;;;;;9.35;0.90;;;17.60;86.00;;;;;;6321300;28;20044;-88
2022/11/24 13:41:53;;;;;;;10.75;1.48;;;17.30;84.60;;;;;;6299379;28;20807;-87
2022/11/24 13:45:31;;;;;;;3.67;0.80;;;17.10;84.40;;;;;;6309929;28;20062;-86
2022/11/24 13:49:01;;;;;;;6.07;1.15;;;17.00;84.50;;;;;;6317503;28;20056;-88
2022/11/24 13:52:41;;;;;;;12.68;1.10;;;16.90;84.90;;;;;;6305237;28;20131;-87
2022/11/24 13:55:55;;;;;;;8.88;1.20;;;16.70;85.30;;;;;;6303194;28;20576;-88
2022/11/24 13:59:02;;;;;;;12.23;1.85;;;16.50;85.00;;;;;;6334273;28;20047;-86
2022/11/24 14:02:25;;;;;;;8.80;2.83;;;16.20;85.50;;;;;;6351638;28;20047;-87
2022/11/24 14:05:35;;;;;;;8.80;1.38;;;15.90;87.30;;;;;;6352360;28;20077;-87
2022/11/24 14:08:40;;;;;;;4.55;1.10;;;15.80;87.60;;;;;;6351198;28;20126;-89
2022/11/24 14:11:42;;;;;;;8.95;1.20;;;15.90;88.20;;;;;;6353014;28;20051;-89
2022/11/24 14:15:08;;;;;;;13.20;1.58;;;15.90;88.70;;;;;;6354068;28;20524;-90
2022/11/24 14:30:31;;;;;;;5.90;1.45;;;16.70;87.20;;;;;;6336230;28;20499;-91
2022/11/24 14:33:40;;;;;;;5.45;1.17;;;16.70;85.80;;;;;;6342379;28;20075;-90
2022/11/24 14:36:53;;;;;;;11.05;2.25;;;16.70;85.50;;;;;;6351212;28;20052;-89
2022/11/24 14:43:25;;;;;;;64.55;22.50;;;17.00;84.90;;;;;;6285960;28;20055;-91
2022/11/24 14:46:27;;;;;;;30.27;9.20;;;16.90;83.90;;;;;;6351326;28;20039;-90
2022/11/24 14:49:33;;;;;;;10.40;4.85;;;16.90;83.40;;;;;;6324231;28;20499;-89
2022/11/24 14:52:44;;;;;;;8.60;3.35;;;16.80;83.20;;;;;;6323069;28;20067;-91
2022/11/24 14:55:48;;;;;;;12.20;2.72;;;16.50;82.90;;;;;;6307735;28;20130;-89
2022/11/24 14:58:54;;;;;;;6.03;1.20;;;16.40;83.00;;;;;;6311827;28;20094;-89
2022/11/24 15:01:59;;;;;;;8.77;1.35;;;16.10;82.80;;;;;;6300910;28;20044;-89
2022/11/24 15:05:05;;;;;;;7.13;2.25;;;15.80;82.70;;;;;;6299982;28;20048;-89
2022/11/24 15:08:17;;;;;;;14.57;1.75;;;15.50;83.30;;;;;;6301663;28;20540;-90
2022/11/24 15:11:25;;;;;;;5.25;0.80;;;15.20;83.60;;;;;;6303220;28;20052;-89
2022/11/24 15:14:45;;;;;;;6.00;0.68;;;14.90;83.70;;;;;;6303633;28;20040;-89
2022/11/24 15:18:24;;;;;;;6.78;0.90;;;14.60;84.30;;;;;;6289909;28;20048;-89
2022/11/24 15:21:44;;;;;;;9.88;1.38;;;14.40;84.50;;;;;;6290507;28;20121;-89
2022/11/24 15:24:53;;;;;;;8.77;1.58;;;14.10;84.80;;;;;;6300824;28;20055;-87
2022/11/24 15:28:06;;;;;;;12.27;1.00;;;13.80;85.30;;;;;;6322654;28;20039;-89
2022/11/24 15:31:11;;;;;;;11.15;0.93;;;13.60;86.00;;;;;;6339269;28;20055;-89
2022/11/24 15:34:28;;;;;;;5.32;1.13;;;13.40;86.30;;;;;;6326508;28;20189;-89
2022/11/24 15:37:47;;;;;;;7.80;1.40;;;13.20;86.70;;;;;;6350876;28;20083;-89
2022/11/24 15:44:51;;;;;;;5.25;0.98;;;12.80;87.50;;;;;;6338116;28;20050;-87
2022/11/24 15:51:42;;;;;;;12.18;1.55;;;12.40;88.10;;;;;;6348765;28;20049;-88
2022/11/24 15:54:59;;;;;;;4.85;0.90;;;12.30;88.50;;;;;;6349544;28;20089;-87
2022/11/24 15:58:08;;;;;;;9.38;1.33;;;12.10;88.90;;;;;;6306241;28;20077;-88
2022/11/24 16:01:12;;;;;;;6.18;1.08;;;11.90;89.20;;;;;;6324083;28;20048;-87
2022/11/24 16:04:15;;;;;;;11.85;2.30;;;11.80;89.70;;;;;;6325557;28;20056;-87
2022/11/24 16:07:17;;;;;;;9.90;1.80;;;11.70;90.00;;;;;;6324179;28;20063;-87
2022/11/24 16:18:07;;;;;;;12.30;1.60;;;11.20;90.70;;;;;;6320601;28;20098;-88
2022/11/24 16:21:13;;;;;;;4.40;0.50;;;11.10;90.70;;;;;;6298851;28;20434;-87
2022/11/24 16:24:17;;;;;;;8.70;0.93;;;11.00;90.90;;;;;;6297681;28;20052;-87
2022/11/24 17:45:09;;;;;;;4.97;1.35;;;7.80;94.20;;;;;;6069216;29;20043;-87
2022/11/24 18:32:36;;;;;;;7.72;1.70;;;7.00;95.60;;;;;;6011606;29;20046;-88
2022/11/24 18:35:59;;;;;;;7.38;1.17;;;7.00;95.60;;;;;;6011587;29;20054;-89
2022/11/24 18:39:02;;;;;;;10.50;1.95;;;7.00;95.60;;;;;;6072800;29;20180;-88
2022/11/24 18:42:11;;;;;;;8.45;1.80;;;7.00;95.80;;;;;;6131888;28;20097;-87
2022/11/24 18:45:14;;;;;;;7.72;1.00;;;7.00;95.90;;;;;;6182067;28;20138;-88
2022/11/24 18:48:58;;;;;;;;;;;;;;;;;;;;;
2022/11/24 22:13:32;;;;;;;10.85;1.95;;;4.70;98.60;;;;;;5940061;29;20413;-88
2022/11/24 22:16:35;;;;;;;8.85;1.58;;;4.70;98.60;;;;;;5963912;29;20058;-87
2022/11/24 22:20:02;;;;;;;9.88;2.03;;;4.60;98.70;;;;;;6105680;29;20063;-88
2022/11/24 22:23:09;;;;;;;5.18;2.10;;;4.60;98.70;;;;;;6087955;29;20545;-89
2022/11/24 22:26:16;;;;;;;13.98;3.28;;;4.60;98.80;;;;;;6074096;29;20436;-87
2022/11/24 22:29:37;;;;;;;3.17;1.02;;;4.50;98.80;;;;;;6085613;29;20048;-88
2022/11/24 22:32:58;;;;;;;4.00;1.85;;;4.50;98.80;;;;;;6123199;29;20055;-87
2022/11/24 22:36:13;;;;;;;3.78;2.08;;;4.40;98.90;;;;;;6139142;29;20062;-86
2022/11/24 22:39:15;;;;;;;5.50;1.92;;;4.50;98.90;;;;;;6139170;29;20043;-87
